createdAt,value
2023-03-10T00:01:23.869Z,12.00
2023-03-10T00:03:52.265Z,12.00
2023-03-10T00:06:25.730Z,12.00
2023-03-10T00:08:54.355Z,12.10
2023-03-10T00:11:24.361Z,12.10
2023-03-10T00:16:24.683Z,12.00
2023-03-10T00:21:25.444Z,12.00
2023-03-10T00:23:54.584Z,12.00
2023-03-10T00:26:27.897Z,11.90
2023-03-10T00:31:27.364Z,11.90
2023-03-10T00:33:57.750Z,11.90
2023-03-10T00:36:29.903Z,11.90
2023-03-10T00:41:36.456Z,11.90
2023-03-10T00:44:05.544Z,11.80
2023-03-10T00:46:34.648Z,11.80
2023-03-10T00:51:31.900Z,11.70
2023-03-10T00:54:01.804Z,11.70
2023-03-10T00:56:31.688Z,11.70
2023-03-10T00:59:01.974Z,11.70
2023-03-10T01:01:33.665Z,11.60
2023-03-10T01:04:05.021Z,11.60
2023-03-10T01:06:34.002Z,11.50
2023-03-10T01:09:02.962Z,11.60
2023-03-10T01:11:32.051Z,11.60
2023-03-10T01:14:05.445Z,11.50
2023-03-10T01:16:34.033Z,11.50
2023-03-10T01:19:02.846Z,11.50
2023-03-10T01:21:33.944Z,11.50
2023-03-10T01:24:03.158Z,11.50
2023-03-10T01:26:32.485Z,11.50
2023-03-10T01:29:02.201Z,11.40
2023-03-10T01:38:58.781Z,11.30
2023-03-10T01:43:57.721Z,11.30
2023-03-10T01:46:50.740Z,11.20
2023-03-10T01:49:36.159Z,11.10
2023-03-10T01:52:09.849Z,11.10
2023-03-10T01:54:49.481Z,11.10
2023-03-10T01:57:21.482Z,11.10
2023-03-10T01:59:51.363Z,11.00
2023-03-10T02:02:23.077Z,11.00
2023-03-10T02:04:53.905Z,11.00
2023-03-10T02:07:27.598Z,11.00
2023-03-10T02:09:57.230Z,10.90
2023-03-10T02:14:55.288Z,10.90
2023-03-10T02:17:27.426Z,10.90
2023-03-10T02:20:20.350Z,10.80
2023-03-10T02:22:49.552Z,10.80
2023-03-10T02:25:34.018Z,10.80
2023-03-10T02:28:04.662Z,10.70
2023-03-10T02:30:38.593Z,10.70
2023-03-10T02:33:10.929Z,10.70
2023-03-10T02:40:46.071Z,10.60
2023-03-10T02:43:23.383Z,10.60
2023-03-10T02:46:00.152Z,10.60
2023-03-10T02:48:32.980Z,10.60
2023-03-10T02:51:05.849Z,10.60
2023-03-10T02:56:02.825Z,10.60
2023-03-10T02:58:35.304Z,10.70
2023-03-10T03:01:06.666Z,10.70
2023-03-10T03:11:08.495Z,10.70
2023-03-10T03:13:38.163Z,10.70
2023-03-10T03:18:38.360Z,10.60
2023-03-10T03:21:10.500Z,10.60
2023-03-10T03:23:40.394Z,10.60
2023-03-10T03:26:17.628Z,10.60
2023-03-10T03:28:47.388Z,10.60
2023-03-10T03:31:19.573Z,10.60
2023-03-10T03:33:49.439Z,10.60
2023-03-10T03:43:47.709Z,10.50
2023-03-10T03:51:14.384Z,10.50
2023-03-10T03:53:44.216Z,10.50
2023-03-10T04:03:48.294Z,10.40
2023-03-10T04:06:18.425Z,10.40
2023-03-10T04:16:20.217Z,10.40
2023-03-10T04:21:18.574Z,10.40
2023-03-10T04:26:21.949Z,10.40
2023-03-10T04:31:22.571Z,10.30
2023-03-10T04:36:21.975Z,10.30
2023-03-10T04:41:26.483Z,10.30
2023-03-10T04:46:24.915Z,10.40
2023-03-10T05:01:25.458Z,10.60
2023-03-10T05:16:35.150Z,10.50
2023-03-10T05:19:03.497Z,10.50
2023-03-10T05:24:03.284Z,10.50
2023-03-10T05:29:04.043Z,10.40
2023-03-10T05:31:59.682Z,10.30
2023-03-10T05:34:33.235Z,10.30
2023-03-10T05:44:36.220Z,10.20
2023-03-10T05:47:08.266Z,10.20
2023-03-10T05:52:08.557Z,10.10
2023-03-10T06:07:05.087Z,11.30
2023-03-10T06:09:34.184Z,10.20
2023-03-10T06:14:31.271Z,10.20
2023-03-10T06:19:29.385Z,10.20
2023-03-10T06:36:50.750Z,10.30
2023-03-10T06:44:18.816Z,10.40
2023-03-10T06:49:15.764Z,10.40
2023-03-10T06:51:43.970Z,10.50
2023-03-10T06:54:13.574Z,10.60
2023-03-10T07:04:08.177Z,10.90
2023-03-10T07:11:35.396Z,11.10
2023-03-10T07:28:57.326Z,11.40
2023-03-10T07:38:52.571Z,11.30
2023-03-10T07:41:22.720Z,11.20
2023-03-10T07:43:54.880Z,11.20
2023-03-10T07:46:24.701Z,11.20
2023-03-10T08:01:18.925Z,10.90
2023-03-10T08:03:49.295Z,10.70
2023-03-10T08:06:20.481Z,10.40
2023-03-10T08:16:17.572Z,9.50
2023-03-10T08:18:47.844Z,9.40
2023-03-10T08:26:16.328Z,9.40
2023-03-10T08:28:45.401Z,9.40
2023-03-10T08:31:17.317Z,9.50
2023-03-10T08:33:46.968Z,9.50
2023-03-10T08:36:19.900Z,9.70
2023-03-10T08:38:49.406Z,9.50
2023-03-10T08:41:20.803Z,9.60
2023-03-10T08:43:50.369Z,9.80
2023-03-10T08:46:20.560Z,9.70
2023-03-10T08:48:49.672Z,9.70
2023-03-10T08:51:20.383Z,9.70
2023-03-10T08:53:50.356Z,9.80
2023-03-10T08:56:21.635Z,9.90
2023-03-10T08:58:50.586Z,10.00
2023-03-10T09:01:20.114Z,10.00
2023-03-10T09:03:48.358Z,10.20
2023-03-10T09:06:18.400Z,10.40
2023-03-10T09:11:19.943Z,11.20
2023-03-10T09:16:18.009Z,11.20
2023-03-10T09:21:17.140Z,11.00
2023-03-10T09:23:50.084Z,10.90
2023-03-10T09:28:49.304Z,10.70
2023-03-10T09:31:21.830Z,10.70
2023-03-10T09:33:50.425Z,10.70
2023-03-10T09:38:49.461Z,10.50
2023-03-10T09:41:50.158Z,10.30
2023-03-10T09:44:32.217Z,10.10
2023-03-10T09:47:23.285Z,9.80
2023-03-10T09:50:10.111Z,9.60
2023-03-10T09:52:46.406Z,9.50
2023-03-10T09:55:25.689Z,9.40
2023-03-10T09:57:57.547Z,9.40
2023-03-10T10:00:31.304Z,9.30
2023-03-10T10:03:09.064Z,9.30
2023-03-10T10:05:39.401Z,9.30
2023-03-10T10:08:21.182Z,9.40
2023-03-10T10:10:54.892Z,9.40
2023-03-10T10:13:26.483Z,9.50
2023-03-10T10:16:21.448Z,9.50
2023-03-10T10:18:58.198Z,9.60
2023-03-10T10:21:42.569Z,9.60
2023-03-10T10:24:11.742Z,9.70
2023-03-10T10:26:41.320Z,9.70
2023-03-10T10:29:17.763Z,9.80
2023-03-10T10:32:07.684Z,12.20
2023-03-10T10:34:37.694Z,9.90
2023-03-10T10:37:29.341Z,10.00
2023-03-10T10:40:00.773Z,10.00
2023-03-10T10:42:32.632Z,9.90
2023-03-10T10:45:03.941Z,9.60
2023-03-10T10:47:35.318Z,9.60
2023-03-10T10:50:20.703Z,9.50
2023-03-10T10:52:53.152Z,9.60
2023-03-10T10:55:29.509Z,9.70
2023-03-10T10:58:02.774Z,9.70
2023-03-10T11:00:33.454Z,9.70
2023-03-10T11:05:37.528Z,9.70
2023-03-10T11:08:22.344Z,9.80
2023-03-10T11:11:00.215Z,9.90
2023-03-10T11:13:40.317Z,10.00
2023-03-10T11:16:19.393Z,10.10
2023-03-10T11:18:53.778Z,10.20
2023-03-10T11:21:27.932Z,10.20
2023-03-10T11:24:09.225Z,10.30
2023-03-10T11:26:52.889Z,10.40
2023-03-10T11:29:39.545Z,10.40
2023-03-10T11:32:19.821Z,10.50
2023-03-10T11:34:53.874Z,10.50
2023-03-10T11:37:31.777Z,10.50
2023-03-10T11:40:19.723Z,10.50
2023-03-10T11:42:57.597Z,10.50
2023-03-10T11:45:35.842Z,10.50
2023-03-10T11:48:21.303Z,10.50
2023-03-10T11:50:53.778Z,10.60
2023-03-10T11:53:35.093Z,10.60
2023-03-10T11:56:05.177Z,10.60
2023-03-10T11:58:43.464Z,10.60
2023-03-10T12:01:18.175Z,10.50
2023-03-10T12:03:55.586Z,10.40
2023-03-10T12:06:33.042Z,10.20
2023-03-10T12:09:03.972Z,10.20
2023-03-10T12:11:32.510Z,10.20
2023-03-10T12:14:03.305Z,10.20
2023-03-10T12:16:39.461Z,10.20
2023-03-10T12:24:27.215Z,10.20
2023-03-10T12:27:16.279Z,10.20
2023-03-10T12:29:45.631Z,10.20
2023-03-10T12:32:47.282Z,10.20
2023-03-10T12:35:55.148Z,10.20
2023-03-10T12:38:44.233Z,10.10
2023-03-10T12:44:03.895Z,10.10
2023-03-10T12:46:45.104Z,10.00
2023-03-10T12:49:27.316Z,9.90
2023-03-10T12:52:08.288Z,9.80
2023-03-10T12:54:53.450Z,9.70
2023-03-10T12:57:27.344Z,9.70
2023-03-10T13:00:06.738Z,9.50
2023-03-10T13:02:44.689Z,9.40
2023-03-10T13:05:25.909Z,9.30
2023-03-10T13:07:58.832Z,9.20
2023-03-10T13:10:31.150Z,11.70
2023-03-10T13:13:05.527Z,9.10
2023-03-10T13:15:35.477Z,9.10
2023-03-10T13:18:20.242Z,9.10
2023-03-10T13:20:50.986Z,9.00
2023-03-10T13:23:27.744Z,9.10
2023-03-10T13:25:58.303Z,9.10
2023-03-10T13:28:29.178Z,9.10
2023-03-10T13:31:20.565Z,9.20
2023-03-10T13:33:53.901Z,9.30
2023-03-10T13:36:38.123Z,9.40
2023-03-10T13:39:16.423Z,9.40
2023-03-10T13:41:48.300Z,9.50
2023-03-10T13:44:22.244Z,9.70
2023-03-10T13:46:53.966Z,9.70
2023-03-10T13:49:26.582Z,9.80
2023-03-10T13:51:58.375Z,9.90
2023-03-10T13:54:29.278Z,9.90
2023-03-10T13:57:03.323Z,10.00
2023-03-10T13:59:33.290Z,10.00
2023-03-10T14:02:03.047Z,10.10
2023-03-10T14:04:46.276Z,10.10
2023-03-10T14:07:19.352Z,10.10
2023-03-10T14:09:49.758Z,10.20
2023-03-10T14:12:37.427Z,10.30
2023-03-10T14:15:23.194Z,10.30
2023-03-10T14:17:53.774Z,10.40
2023-03-10T14:20:30.744Z,10.40
2023-03-10T14:23:01.056Z,10.40
2023-03-10T14:27:59.925Z,10.50
2023-03-10T14:30:31.420Z,10.50
2023-03-10T14:33:01.924Z,10.50
2023-03-10T14:35:31.454Z,10.40
2023-03-10T14:38:01.028Z,10.40
2023-03-10T14:43:02.449Z,10.40
2023-03-10T14:45:33.884Z,10.30
2023-03-10T14:48:05.922Z,10.30
2023-03-10T14:50:35.711Z,10.20
2023-03-10T14:53:10.197Z,10.20
2023-03-10T14:58:08.894Z,10.10
2023-03-10T15:08:19.581Z,10.10
2023-03-10T15:10:50.916Z,10.10
2023-03-10T15:13:20.696Z,10.10
2023-03-10T15:18:21.563Z,10.00
2023-03-10T15:20:50.587Z,10.00
2023-03-10T15:23:22.299Z,9.90
2023-03-10T15:28:20.108Z,9.80
2023-03-10T15:33:17.778Z,9.70
2023-03-10T15:38:16.340Z,9.60
2023-03-10T15:40:46.060Z,9.60
2023-03-10T15:43:14.712Z,9.50
2023-03-10T15:45:46.621Z,9.50
2023-03-10T15:50:43.850Z,9.40
2023-03-10T15:55:42.116Z,9.30
2023-03-10T15:58:12.998Z,9.30
2023-03-10T16:05:50.300Z,9.30
2023-03-10T16:10:54.501Z,9.40
2023-03-10T16:13:24.918Z,9.40
2023-03-10T16:20:58.478Z,9.30
2023-03-10T16:26:12.460Z,9.30
2023-03-10T16:28:44.446Z,9.30
2023-03-10T16:36:15.912Z,9.20
2023-03-10T16:41:14.334Z,9.00
2023-03-10T16:46:17.138Z,8.90
2023-03-10T16:48:49.267Z,8.80
2023-03-10T16:51:26.017Z,8.80
2023-03-10T16:53:57.201Z,8.70
2023-03-10T16:56:26.736Z,8.80
2023-03-10T16:58:57.616Z,8.80
2023-03-10T17:01:26.199Z,8.70
2023-03-10T17:03:55.520Z,8.70
2023-03-10T17:06:27.103Z,8.70
2023-03-10T17:11:27.398Z,8.60
2023-03-10T17:13:59.731Z,8.60
2023-03-10T17:16:31.203Z,8.50
2023-03-10T17:19:01.867Z,8.40
2023-03-10T17:21:33.283Z,8.50
2023-03-10T17:29:01.552Z,8.50
2023-03-10T17:31:30.544Z,8.40
2023-03-10T17:34:01.900Z,8.40
2023-03-10T17:36:30.552Z,8.30
2023-03-10T17:39:01.260Z,8.30
2023-03-10T17:44:01.271Z,8.10
2023-03-10T17:46:31.567Z,8.00
2023-03-10T17:51:31.622Z,7.90
2023-03-10T17:54:02.361Z,7.80
2023-03-10T17:56:30.965Z,7.80
2023-03-10T17:59:00.967Z,7.80
2023-03-10T18:01:31.372Z,7.70
2023-03-10T18:04:01.854Z,7.70
2023-03-10T18:06:33.121Z,7.70
2023-03-10T18:09:05.616Z,7.70
2023-03-10T18:11:35.224Z,7.70
2023-03-10T18:14:05.275Z,7.70
2023-03-10T18:16:36.126Z,7.70
2023-03-10T18:21:33.378Z,7.60
2023-03-10T18:26:31.382Z,7.50
2023-03-10T18:31:34.442Z,7.50
2023-03-10T18:36:32.896Z,7.40
2023-03-10T18:41:32.787Z,7.30
2023-03-10T18:46:31.459Z,7.00
2023-03-10T18:51:29.548Z,6.80
2023-03-10T18:53:58.189Z,6.60
2023-03-10T19:03:56.667Z,6.30
2023-03-10T19:11:27.763Z,6.10
2023-03-10T19:21:24.186Z,5.80
2023-03-10T19:28:49.519Z,5.60
2023-03-10T19:31:18.333Z,5.60
2023-03-10T19:33:46.712Z,5.50
2023-03-10T19:36:16.487Z,5.50
2023-03-10T19:38:46.498Z,5.50
2023-03-10T19:41:17.278Z,5.40
2023-03-10T19:43:47.211Z,5.40
2023-03-10T19:46:16.612Z,5.30
2023-03-10T19:48:45.574Z,5.30
2023-03-10T19:51:21.965Z,5.30
2023-03-10T19:53:52.929Z,5.30
2023-03-10T19:56:22.806Z,5.20
2023-03-10T20:01:24.220Z,5.20
2023-03-10T20:03:54.268Z,5.10
2023-03-10T20:06:23.188Z,5.10
2023-03-10T20:08:54.432Z,5.10
2023-03-10T20:11:23.806Z,5.10
2023-03-10T20:13:54.640Z,5.00
2023-03-10T20:26:20.779Z,4.90
2023-03-10T20:28:50.590Z,4.90
2023-03-10T20:31:21.402Z,4.90
2023-03-10T20:41:19.695Z,4.90
2023-03-10T20:46:19.280Z,4.80
2023-03-10T20:48:50.635Z,4.80
2023-03-10T20:56:19.057Z,4.80
2023-03-10T21:01:17.464Z,4.70
2023-03-10T21:13:41.750Z,4.60
2023-03-10T21:16:10.414Z,4.60
2023-03-10T21:21:09.508Z,4.60
2023-03-10T21:23:43.490Z,4.50
2023-03-10T21:26:13.574Z,4.50
2023-03-10T21:28:43.494Z,4.50
2023-03-10T21:31:12.636Z,1.30
2023-03-10T21:36:15.299Z,4.50
2023-03-10T21:38:44.269Z,4.50
2023-03-10T21:41:15.362Z,4.50
2023-03-10T21:43:45.034Z,4.50
2023-03-10T21:48:42.853Z,4.60
2023-03-10T21:51:14.182Z,4.50
2023-03-10T21:56:11.885Z,4.50
2023-03-10T22:01:10.256Z,4.50
2023-03-10T22:03:38.525Z,4.50
2023-03-10T22:06:07.300Z,4.50
2023-03-10T22:08:37.748Z,4.50
2023-03-10T22:11:08.397Z,4.50
2023-03-10T22:13:38.645Z,4.40
2023-03-10T22:16:10.588Z,4.40
2023-03-10T22:26:06.066Z,4.40
2023-03-10T22:31:06.001Z,4.30
2023-03-10T22:33:37.933Z,4.30
2023-03-10T22:36:08.729Z,4.30
2023-03-10T22:41:11.737Z,4.30
2023-03-10T22:43:39.965Z,4.30
2023-03-10T22:46:11.509Z,4.30
2023-03-10T22:48:42.134Z,4.20
2023-03-10T22:51:14.599Z,4.30
2023-03-10T22:53:42.874Z,4.20
2023-03-10T23:03:37.327Z,4.10
2023-03-10T23:06:08.032Z,4.10
2023-03-10T23:08:37.510Z,4.00
2023-03-10T23:11:10.894Z,4.00
2023-03-10T23:16:09.455Z,3.90
2023-03-10T23:23:39.174Z,3.60
2023-03-10T23:33:34.217Z,3.30
2023-03-10T23:55:56.748Z,2.90
